Time;durP1;ratioP1;P1;durP2;ratioP2;P2;SDS_P1;SDS_P2;PMS_P1;PMS_P2;Temp;Humidity;BMP_temperature;BMP_pressure;BME280_temperature;BME280_humidity;BME280_pressure;Samples;Min_cycle;Max_cycle;Signal;HPM_P1;HPM_P2
2023/06/30 00:00:09;;;;;;;2.70;2.50;;;;;;;22.31;50.36;101052.48;110608;1263;22366;-48
2023/06/30 00:02:40;;;;;;;2.50;2.00;;;;;;;22.33;50.34;101050.08;110346;1268;22380;-50
2023/06/30 00:05:07;;;;;;;3.00;2.40;;;;;;;22.33;50.32;101049.17;110614;1262;22146;-47
2023/06/30 00:07:34;;;;;;;3.10;2.40;;;;;;;22.33;50.28;101051.14;110498;1262;22468;-43
2023/06/30 00:10:01;;;;;;;2.70;2.30;;;;;;;22.32;50.24;101051.39;110604;1265;22448;-46
2023/06/30 00:12:28;;;;;;;3.60;2.40;;;;;;;22.29;50.24;101051.36;110612;1260;23080;-48
2023/06/30 00:14:55;;;;;;;2.70;2.50;;;;;;;22.27;50.30;101056.29;110631;1262;23165;-45
2023/06/30 00:17:21;;;;;;;2.60;2.40;;;;;;;22.25;50.35;101054.52;110640;1260;22127;-47
2023/06/30 00:19:50;;;;;;;3.70;2.50;;;;;;;22.22;50.44;101056.79;110371;1265;22403;-46
2023/06/30 00:22:21;;;;;;;2.80;2.60;;;;;;;22.20;50.49;101058.52;110651;1263;22206;-48
2023/06/30 00:24:58;;;;;;;2.50;2.30;;;;;;;22.18;50.66;101059.72;110603;1264;22377;-45
2023/06/30 00:27:25;;;;;;;2.70;2.50;;;;;;;22.17;50.74;101059.59;110621;1265;22382;-46
2023/06/30 00:29:51;;;;;;;2.50;2.30;;;;;;;22.18;50.85;101061.52;110623;1263;22116;-46
2023/06/30 00:32:19;;;;;;;2.50;2.30;;;;;;;22.19;50.86;101063.95;110328;1259;22435;-46
2023/06/30 00:34:47;;;;;;;2.40;2.20;;;;;;;22.19;50.71;101061.42;110586;1263;22397;-48
2023/06/30 00:37:14;;;;;;;2.70;2.50;;;;;;;22.18;50.62;101062.70;110584;1268;22134;-46
2023/06/30 00:39:41;;;;;;;2.80;2.60;;;;;;;22.16;50.65;101065.14;110470;1262;23084;-46
2023/06/30 00:42:08;;;;;;;3.10;2.60;;;;;;;22.15;50.68;101063.13;110606;1262;22314;-47
2023/06/30 00:44:35;;;;;;;2.80;2.60;;;;;;;22.12;50.67;101062.11;110571;1262;22209;-45
2023/06/30 00:47:02;;;;;;;4.00;2.60;;;;;;;22.09;50.71;101060.85;110642;1262;22348;-48
2023/06/30 00:49:29;;;;;;;2.60;2.40;;;;;;;22.07;50.85;101058.34;110603;1262;22347;-52
2023/06/30 00:51:56;;;;;;;2.70;2.40;;;;;;;22.06;50.88;101053.06;110563;1254;23024;-45
2023/06/30 00:54:24;;;;;;;2.90;2.60;;;;;;;22.07;51.05;101048.61;110404;1263;22877;-46
2023/06/30 00:56:51;;;;;;;2.80;2.50;;;;;;;22.08;50.96;101044.65;110580;1267;22893;-45
2023/06/30 00:59:18;;;;;;;2.50;2.30;;;;;;;22.10;50.95;101048.60;110249;1273;23275;-45
2023/06/30 01:01:56;;;;;;;3.60;2.80;;;;;;;22.12;50.81;101048.49;110655;1262;22351;-45
2023/06/30 01:04:27;;;;;;;2.90;2.70;;;;;;;22.11;50.80;101037.73;110581;1263;22307;-45
2023/06/30 01:07:01;;;;;;;2.30;2.20;;;;;;;22.11;50.69;101039.71;110344;1266;23039;-45
2023/06/30 01:09:30;;;;;;;3.90;3.00;;;;;;;22.09;50.83;101034.52;110141;1268;22137;-46
2023/06/30 01:11:57;;;;;;;2.50;2.30;;;;;;;22.08;50.84;101036.55;110256;1268;23097;-46
2023/06/30 01:14:24;;;;;;;2.30;2.10;;;;;;;22.06;50.97;101033.29;110169;1270;22423;-46
2023/06/30 01:16:53;;;;;;;4.50;3.30;;;;;;;22.06;51.04;101033.33;110538;1268;22384;-46
2023/06/30 01:19:32;;;;;;;2.60;2.40;;;;;;;22.05;51.21;101039.90;110641;1260;22297;-45
2023/06/30 01:22:03;;;;;;;3.70;2.10;;;;;;;22.05;51.23;101030.92;110576;1265;22299;-45
2023/06/30 01:24:34;;;;;;;2.80;2.50;;;;;;;22.05;51.31;101037.77;110392;1267;22446;-44
2023/06/30 01:27:01;;;;;;;5.60;2.50;;;;;;;22.06;51.58;101033.64;110368;1266;22850;-47
2023/06/30 01:29:29;;;;;;;4.20;2.60;;;;;;;22.08;51.55;101035.27;110621;1263;22144;-51
2023/06/30 01:31:58;;;;;;;3.90;2.90;;;;;;;22.10;51.47;101034.09;110547;1269;22221;-47
2023/06/30 01:34:25;;;;;;;2.30;2.10;;;;;;;22.11;51.39;101032.64;110543;1257;22399;-49
2023/06/30 01:36:52;;;;;;;2.80;2.50;;;;;;;22.10;51.28;101036.04;110590;1263;22384;-48
2023/06/30 01:39:19;;;;;;;2.60;2.30;;;;;;;22.08;51.38;101038.63;110598;1265;22301;-48
2023/06/30 01:41:46;;;;;;;3.00;2.60;;;;;;;22.08;51.46;101043.44;110562;1269;22289;-46
2023/06/30 01:44:13;;;;;;;2.50;2.30;;;;;;;22.06;51.46;101041.61;110350;1258;22118;-48
2023/06/30 01:46:40;;;;;;;3.30;2.80;;;;;;;22.04;51.52;101034.16;110553;1259;22421;-47
2023/06/30 01:49:08;;;;;;;2.90;2.70;;;;;;;22.05;51.59;101037.45;110572;1265;22107;-46
2023/06/30 01:51:35;;;;;;;4.20;2.40;;;;;;;22.05;51.63;101039.39;110305;1267;22154;-46
2023/06/30 01:54:02;;;;;;;3.60;2.40;;;;;;;22.06;51.60;101034.73;110603;1263;22216;-50
2023/06/30 01:56:29;;;;;;;2.90;2.70;;;;;;;22.07;51.63;101036.73;110612;1263;22380;-45
2023/06/30 01:58:56;;;;;;;3.00;2.80;;;;;;;22.10;51.69;101035.52;110574;1264;22804;-46
2023/06/30 02:01:22;;;;;;;2.70;2.30;;;;;;;22.12;51.66;101034.33;110563;1265;22129;-49
2023/06/30 02:03:50;;;;;;;3.10;2.50;;;;;;;22.14;51.62;101035.99;110080;1270;22185;-48
2023/06/30 02:06:17;;;;;;;2.50;2.30;;;;;;;22.15;51.62;101039.29;110396;1266;22351;-48
2023/06/30 02:08:44;;;;;;;2.80;2.50;;;;;;;22.14;51.63;101039.88;110325;1263;23079;-46
2023/06/30 02:11:11;;;;;;;3.60;2.90;;;;;;;22.11;51.69;101042.35;110352;1266;22167;-45
2023/06/30 02:13:38;;;;;;;2.80;2.60;;;;;;;22.09;51.80;101039.63;110243;1269;22957;-48
2023/06/30 02:16:05;;;;;;;3.00;2.20;;;;;;;22.08;51.96;101040.45;110155;1269;22781;-46
2023/06/30 02:18:32;;;;;;;2.80;2.50;;;;;;;22.08;52.05;101041.67;110395;1266;22950;-48
2023/06/30 02:20:59;;;;;;;3.70;2.60;;;;;;;22.08;52.00;101042.70;110394;1266;22375;-46
2023/06/30 02:23:28;;;;;;;2.70;2.40;;;;;;;22.06;52.07;101043.75;110109;1262;22864;-50
2023/06/30 02:25:55;;;;;;;2.80;2.60;;;;;;;22.04;52.18;101041.23;108839;1272;1002364;-46
2023/06/30 02:28:25;;;;;;;2.80;2.60;;;;;;;22.02;52.18;101047.17;110386;1259;22434;-46
2023/06/30 02:30:55;;;;;;;2.80;2.40;;;;;;;22.00;52.23;101047.65;110380;1266;22325;-45
2023/06/30 02:33:24;;;;;;;3.20;2.60;;;;;;;21.98;52.21;101048.02;110229;1269;22853;-45
2023/06/30 02:35:51;;;;;;;2.90;2.70;;;;;;;21.95;52.33;101049.02;110343;1268;22233;-45
2023/06/30 02:38:19;;;;;;;3.10;2.70;;;;;;;21.95;52.56;101047.28;110206;1269;22404;-47
2023/06/30 02:40:47;;;;;;;3.30;2.90;;;;;;;21.95;52.62;101048.84;110413;1267;22315;-46
2023/06/30 02:43:14;;;;;;;2.80;2.60;;;;;;;21.97;52.66;101049.81;110627;1265;22294;-48
2023/06/30 02:45:41;;;;;;;2.90;2.70;;;;;;;21.97;52.68;101048.04;110555;1266;23201;-49
2023/06/30 02:48:08;;;;;;;2.60;2.40;;;;;;;21.98;52.75;101054.87;110567;1269;23128;-46
2023/06/30 02:50:35;;;;;;;3.00;2.70;;;;;;;21.99;52.80;101052.51;110585;1265;22388;-51
2023/06/30 02:53:01;;;;;;;3.20;2.90;;;;;;;22.01;52.86;101056.27;110279;1268;22481;-45
2023/06/30 02:55:28;;;;;;;2.80;2.40;;;;;;;22.03;52.85;101061.77;110562;1260;22816;-46
2023/06/30 02:57:56;;;;;;;3.00;2.80;;;;;;;22.03;52.72;101061.20;109151;1263;1003165;-48
2023/06/30 03:00:23;;;;;;;2.90;2.60;;;;;;;22.03;52.81;101063.54;110557;1265;22425;-48
2023/06/30 03:02:50;;;;;;;2.60;2.40;;;;;;;22.03;52.76;101061.96;110588;1254;22410;-46
2023/06/30 03:05:18;;;;;;;3.50;2.60;;;;;;;22.03;52.80;101062.50;110544;1265;23068;-46
2023/06/30 03:07:45;;;;;;;4.10;2.80;;;;;;;22.04;52.77;101063.50;110581;1255;22883;-47
2023/06/30 03:10:12;;;;;;;4.50;3.00;;;;;;;22.02;52.71;101064.80;110629;1256;22275;-48
2023/06/30 03:12:39;;;;;;;4.50;3.00;;;;;;;22.02;52.88;101064.68;110558;1261;22383;-45
2023/06/30 03:15:06;;;;;;;2.80;2.60;;;;;;;22.02;52.93;101063.45;110545;1266;22331;-51
2023/06/30 03:17:34;;;;;;;4.30;2.90;;;;;;;22.02;53.07;101061.14;110236;1261;22529;-45
2023/06/30 03:20:01;;;;;;;2.60;2.40;;;;;;;22.04;53.13;101062.95;110637;1267;22374;-48
2023/06/30 03:22:31;;;;;;;3.00;2.60;;;;;;;22.06;53.09;101068.64;110538;1265;22939;-49
2023/06/30 03:25:00;;;;;;;3.50;3.20;;;;;;;22.06;53.09;101064.73;110552;1265;22139;-47
2023/06/30 03:27:26;;;;;;;3.90;2.60;;;;;;;22.07;53.07;101064.52;110252;1268;22287;-46
2023/06/30 03:29:53;;;;;;;4.10;2.60;;;;;;;22.07;53.01;101061.15;110577;1265;22379;-49
2023/06/30 03:32:20;;;;;;;2.60;2.40;;;;;;;22.08;53.01;101064.61;110569;1255;22158;-50
2023/06/30 03:34:47;;;;;;;4.00;3.00;;;;;;;22.10;52.98;101062.92;110535;1266;22406;-45
2023/06/30 03:37:13;;;;;;;2.50;2.30;;;;;;;22.12;53.01;101060.16;110601;1263;22139;-48
2023/06/30 03:39:40;;;;;;;3.30;3.00;;;;;;;22.16;53.06;101062.52;110639;1263;22099;-46
2023/06/30 03:42:07;;;;;;;3.00;2.70;;;;;;;22.22;53.21;101061.73;110584;1265;22139;-52
2023/06/30 03:44:37;;;;;;;3.50;3.20;;;;;;;22.35;53.20;101058.77;110630;1256;22442;-48
2023/06/30 03:47:05;;;;;;;3.00;2.80;;;;;;;22.60;53.02;101057.81;110565;1265;22407;-45
2023/06/30 03:49:32;;;;;;;3.20;2.50;;;;;;;22.97;52.26;101059.05;110235;1268;22381;-46
2023/06/30 03:51:58;;;;;;;3.40;3.10;;;;;;;23.36;51.29;101058.98;110636;1268;22408;-46
2023/06/30 03:54:25;;;;;;;2.90;2.70;;;;;;;23.70;50.40;101062.20;110573;1267;22824;-48
2023/06/30 03:56:52;;;;;;;2.90;2.60;;;;;;;24.03;49.52;101055.75;110608;1263;22364;-46
2023/06/30 03:59:19;;;;;;;3.50;2.70;;;;;;;24.34;48.97;101055.25;110610;1270;22141;-46
2023/06/30 04:01:46;;;;;;;3.50;2.90;;;;;;;24.58;48.01;101057.66;110553;1265;22699;-46
2023/06/30 04:04:12;;;;;;;3.90;2.90;;;;;;;24.79;47.63;101056.41;110643;1263;22367;-48
2023/06/30 04:06:40;;;;;;;2.90;2.70;;;;;;;24.98;46.94;101056.38;110248;1261;22979;-50
2023/06/30 04:09:06;;;;;;;3.70;3.00;;;;;;;25.06;46.40;101057.39;110105;1264;22338;-47
2023/06/30 04:11:33;;;;;;;3.00;2.80;;;;;;;25.04;46.42;101062.30;110366;1254;22548;-46
2023/06/30 04:14:00;;;;;;;2.90;2.70;;;;;;;24.99;46.19;101061.61;110585;1265;22356;-46
2023/06/30 04:16:27;;;;;;;3.20;2.60;;;;;;;24.94;46.43;101063.83;110617;1263;22380;-48
2023/06/30 04:18:55;;;;;;;3.90;3.10;;;;;;;24.95;46.44;101065.69;110636;1263;22171;-44
2023/06/30 04:21:21;;;;;;;4.30;3.20;;;;;;;24.95;46.18;101069.73;110641;1263;22131;-47
2023/06/30 04:23:48;;;;;;;3.60;3.30;;;;;;;24.91;46.30;101068.52;110613;1263;22170;-52
2023/06/30 04:26:17;;;;;;;3.60;3.00;;;;;;;24.84;46.42;101068.68;110603;1263;22894;-43
2023/06/30 04:28:44;;;;;;;4.00;3.10;;;;;;;24.76;46.52;101073.94;110559;1253;22171;-46
2023/06/30 04:31:13;;;;;;;3.50;3.20;;;;;;;24.67;46.61;101072.27;110633;1267;22393;-48
2023/06/30 04:33:41;;;;;;;2.90;2.70;;;;;;;24.57;46.87;101074.25;110618;1264;22338;-54
2023/06/30 04:36:07;;;;;;;3.60;3.00;;;;;;;24.48;46.96;101072.61;110213;1268;22975;-48
2023/06/30 04:38:35;;;;;;;4.00;2.90;;;;;;;24.41;47.44;101070.48;110244;1265;23062;-47
2023/06/30 04:41:01;;;;;;;4.30;3.90;;;;;;;24.33;47.75;101069.38;110236;1268;22164;-51
2023/06/30 04:43:28;;;;;;;5.00;3.40;;;;;;;24.16;48.08;101071.84;110226;1269;22612;-46
2023/06/30 04:45:57;;;;;;;4.00;3.30;;;;;;;24.08;48.34;101069.90;110667;1256;22361;-48
2023/06/30 04:48:24;;;;;;;3.70;3.10;;;;;;;24.04;48.65;101078.86;110393;1268;22194;-46
2023/06/30 04:50:51;;;;;;;4.20;3.80;;;;;;;24.03;49.00;101084.09;110585;1263;22314;-47
2023/06/30 04:53:18;;;;;;;3.80;3.50;;;;;;;24.03;49.04;101083.18;110573;1263;22414;-48
2023/06/30 04:55:44;;;;;;;4.00;3.60;;;;;;;24.05;49.22;101085.21;110543;1272;22410;-45
2023/06/30 04:58:12;;;;;;;3.60;3.30;;;;;;;24.10;49.05;101078.42;110632;1256;22359;-46
2023/06/30 05:00:39;;;;;;;4.40;3.70;;;;;;;24.19;48.72;101079.58;110327;1266;22144;-46
2023/06/30 05:03:06;;;;;;;4.20;3.60;;;;;;;24.25;48.68;101082.88;110606;1266;22161;-49
2023/06/30 05:05:33;;;;;;;5.00;3.70;;;;;;;24.34;48.60;101081.70;110601;1256;22290;-49
2023/06/30 05:08:00;;;;;;;4.00;3.70;;;;;;;24.45;48.35;101077.30;110626;1257;23139;-46
2023/06/30 05:10:27;;;;;;;3.90;3.60;;;;;;;24.61;48.04;101076.97;110632;1256;22283;-48
2023/06/30 05:12:55;;;;;;;5.10;3.80;;;;;;;24.81;47.84;101080.83;110330;1260;22271;-51
2023/06/30 05:15:21;;;;;;;4.70;3.70;;;;;;;25.06;47.56;101080.64;110380;1270;22118;-45
2023/06/30 05:17:48;;;;;;;7.20;4.30;;;;;;;25.37;47.01;101087.48;110375;1254;22407;-48
2023/06/30 05:20:15;;;;;;;4.10;3.70;;;;;;;25.75;46.53;101082.12;110554;1256;22267;-46
2023/06/30 05:22:42;;;;;;;5.40;4.40;;;;;;;26.19;45.61;101080.71;110620;1270;22325;-46
2023/06/30 05:25:09;;;;;;;4.80;3.50;;;;;;;26.58;44.85;101076.94;110635;1255;22824;-44
2023/06/30 05:27:36;;;;;;;4.50;4.00;;;;;;;26.96;43.94;101074.88;110592;1252;22410;-45
2023/06/30 05:30:03;;;;;;;4.50;4.10;;;;;;;27.28;43.18;101074.44;110591;1257;22523;-44
2023/06/30 05:32:30;;;;;;;4.40;4.00;;;;;;;27.58;42.93;101074.74;110669;1260;22385;-45
2023/06/30 05:34:57;;;;;;;4.20;3.90;;;;;;;27.70;42.35;101071.16;110542;1271;22477;-46
2023/06/30 05:37:24;;;;;;;4.50;4.00;;;;;;;27.70;41.83;101070.09;110624;1261;22472;-44
2023/06/30 05:39:51;;;;;;;4.50;4.00;;;;;;;27.62;41.76;101070.25;110593;1264;22805;-47
2023/06/30 05:42:19;;;;;;;4.70;4.20;;;;;;;27.53;42.07;101064.13;110601;1263;22413;-44
2023/06/30 05:44:46;;;;;;;4.70;4.20;;;;;;;27.46;42.06;101065.80;110314;1258;22132;-44
2023/06/30 05:47:12;;;;;;;5.10;4.60;;;;;;;27.39;42.20;101067.11;110252;1264;22140;-44
2023/06/30 05:49:40;;;;;;;4.70;4.30;;;;;;;27.36;42.55;101064.49;110599;1264;22157;-50
2023/06/30 05:52:07;;;;;;;4.20;3.90;;;;;;;27.32;42.62;101067.70;110614;1253;22154;-44
2023/06/30 05:54:35;;;;;;;4.60;3.80;;;;;;;27.27;43.07;101065.65;110342;1267;22459;-44
2023/06/30 05:57:02;;;;;;;4.30;4.00;;;;;;;27.27;43.52;101062.75;110553;1260;23080;-45
2023/06/30 05:59:30;;;;;;;6.70;4.50;;;;;;;27.33;43.48;101067.07;110545;1260;22212;-44
2023/06/30 06:01:57;;;;;;;5.60;4.40;;;;;;;27.40;43.30;101069.68;110232;1268;22781;-47
2023/06/30 06:04:24;;;;;;;6.00;3.70;;;;;;;27.52;43.02;101069.54;110540;1268;23238;-47
2023/06/30 06:06:51;;;;;;;4.70;4.30;;;;;;;27.64;43.09;101074.70;110247;1269;22803;-46
2023/06/30 06:09:18;;;;;;;4.10;3.40;;;;;;;27.73;43.02;101075.13;110563;1261;22192;-49
2023/06/30 06:11:45;;;;;;;4.80;4.30;;;;;;;27.74;42.58;101074.19;110420;1257;22526;-51
2023/06/30 06:14:12;;;;;;;4.30;3.90;;;;;;;27.62;43.04;101075.77;110563;1256;23157;-47
2023/06/30 06:16:44;;;;;;;4.40;4.00;;;;;;;27.47;43.35;101077.45;110562;1269;22129;-48
2023/06/30 06:19:12;;;;;;;5.10;3.90;;;;;;;27.37;43.82;101072.45;110416;1259;22304;-49
2023/06/30 06:21:39;;;;;;;4.00;3.70;;;;;;;27.32;43.84;101070.68;110576;1263;22412;-44
2023/06/30 06:24:07;;;;;;;6.20;4.70;;;;;;;27.33;44.04;101072.95;110598;1261;22401;-45
2023/06/30 06:26:37;;;;;;;5.60;5.10;;;;;;;27.36;44.08;101068.77;110239;1267;22455;-47
2023/06/30 06:29:04;;;;;;;4.60;4.20;;;;;;;27.40;44.27;101062.73;110583;1261;23105;-44
2023/06/30 06:31:31;;;;;;;4.70;4.30;;;;;;;27.43;43.97;101059.13;110606;1267;22306;-44
2023/06/30 06:33:58;;;;;;;4.70;4.10;;;;;;;27.46;44.09;101057.29;110562;1264;22310;-44
2023/06/30 06:36:25;;;;;;;5.50;4.40;;;;;;;27.45;44.05;101064.33;110573;1251;22281;-45
2023/06/30 06:38:51;;;;;;;4.90;4.40;;;;;;;27.43;44.06;101067.19;110499;1266;23035;-44
2023/06/30 06:41:18;;;;;;;4.60;4.20;;;;;;;27.38;44.32;101066.27;110598;1267;22159;-44
2023/06/30 06:43:45;;;;;;;4.70;4.30;;;;;;;27.32;44.64;101062.47;110548;1257;22292;-51
2023/06/30 06:46:12;;;;;;;4.60;4.20;;;;;;;27.25;44.75;101061.84;110612;1260;22136;-46
2023/06/30 06:48:39;;;;;;;5.00;4.50;;;;;;;27.18;44.84;101060.84;110573;1257;22129;-44
2023/06/30 06:51:06;;;;;;;4.60;4.20;;;;;;;27.12;45.14;101060.86;110576;1260;22154;-46
2023/06/30 06:53:34;;;;;;;5.20;4.80;;;;;;;27.05;45.47;101058.67;110591;1264;22264;-47
2023/06/30 06:56:01;;;;;;;5.00;4.50;;;;;;;26.97;46.05;101056.13;110333;1257;22353;-49
2023/06/30 06:58:32;;;;;;;4.60;4.20;;;;;;;26.93;46.69;101058.43;110657;1261;22625;-44
2023/06/30 07:00:59;;;;;;;5.10;4.60;;;;;;;26.92;46.76;101059.61;110177;1261;22199;-44
2023/06/30 07:03:27;;;;;;;5.40;4.50;;;;;;;26.93;46.96;101061.50;110513;1260;22330;-46
2023/06/30 07:05:55;;;;;;;4.80;4.30;;;;;;;26.96;46.71;101061.02;110178;1258;22280;-46
2023/06/30 07:08:21;;;;;;;4.70;4.30;;;;;;;27.02;46.92;101060.31;110566;1261;22797;-44
2023/06/30 07:10:50;;;;;;;4.70;4.30;;;;;;;27.07;47.17;101064.89;110461;1264;22412;-44
2023/06/30 07:13:20;;;;;;;4.60;4.20;;;;;;;27.11;46.88;101063.47;110602;1251;22272;-44
2023/06/30 07:15:50;;;;;;;4.50;4.10;;;;;;;27.14;46.69;101063.23;110586;1260;22302;-45
2023/06/30 07:18:17;;;;;;;4.70;4.30;;;;;;;27.14;46.76;101062.50;110556;1265;22874;-47
2023/06/30 07:20:46;;;;;;;4.70;3.90;;;;;;;27.16;46.98;101059.52;110576;1260;22833;-43
2023/06/30 07:23:13;;;;;;;4.70;4.20;;;;;;;27.18;46.89;101059.86;110666;1263;23257;-47
2023/06/30 07:25:39;;;;;;;4.70;3.80;;;;;;;27.21;46.20;101059.02;110445;1273;23202;-44
2023/06/30 07:28:06;;;;;;;4.50;4.10;;;;;;;27.26;45.39;101060.39;110224;1260;22211;-45
2023/06/30 07:30:36;;;;;;;4.40;4.00;;;;;;;27.30;45.73;101064.66;110562;1263;22360;-45
2023/06/30 07:33:02;;;;;;;8.00;4.40;;;;;;;27.34;45.90;101061.30;110547;1267;23106;-47
2023/06/30 07:35:31;;;;;;;4.90;4.20;;;;;;;27.37;45.65;101063.73;110404;1264;22302;-44
2023/06/30 07:37:57;;;;;;;4.20;3.60;;;;;;;27.40;45.44;101061.66;110551;1267;23308;-44
2023/06/30 07:40:24;;;;;;;4.80;4.40;;;;;;;27.33;45.82;101060.27;110586;1260;22597;-46
2023/06/30 07:42:53;;;;;;;8.40;4.30;;;;;;;27.34;46.33;101062.17;110597;1251;22157;-46
2023/06/30 07:45:20;;;;;;;4.50;4.10;;;;;;;27.40;45.78;101054.93;110360;1265;22385;-48
2023/06/30 07:47:47;;;;;;;4.10;3.80;;;;;;;27.43;45.74;101053.04;110304;1270;22764;-46
2023/06/30 07:50:15;;;;;;;4.20;3.80;;;;;;;27.40;45.39;101056.02;110581;1253;23085;-46
2023/06/30 07:52:46;;;;;;;4.00;3.70;;;;;;;27.34;45.26;101057.18;110584;1257;22191;-45
2023/06/30 07:55:12;;;;;;;4.10;3.80;;;;;;;27.29;45.57;101058.48;110584;1261;23018;-47
2023/06/30 07:57:40;;;;;;;4.90;4.40;;;;;;;27.26;45.87;101057.91;110430;1267;22466;-48
2023/06/30 08:00:07;;;;;;;6.90;3.70;;;;;;;27.24;46.38;101063.01;110207;1270;23066;-46
2023/06/30 08:02:39;;;;;;;4.30;3.90;;;;;;;27.22;46.47;101065.17;110437;1256;23139;-44
2023/06/30 08:05:07;;;;;;;4.10;3.80;;;;;;;27.20;46.33;101062.48;110400;1263;22332;-45
2023/06/30 08:07:34;;;;;;;4.10;3.60;;;;;;;27.19;46.74;101066.86;110572;1263;22387;-45
2023/06/30 08:10:16;;;;;;;4.50;4.10;;;;;;;27.17;47.31;101067.73;110606;1260;22319;-46
2023/06/30 08:12:43;;;;;;;4.70;4.30;;;;;;;27.19;47.46;101063.66;110571;1263;22127;-47
2023/06/30 08:15:10;;;;;;;4.50;4.20;;;;;;;27.25;47.71;101064.57;110583;1261;22220;-49
2023/06/30 08:17:40;;;;;;;4.20;3.80;;;;;;;27.30;47.44;101065.02;110552;1263;22394;-45
2023/06/30 08:20:23;;;;;;;4.60;4.20;;;;;;;27.29;47.08;101062.77;110559;1256;22307;-46
2023/06/30 08:22:50;;;;;;;4.70;4.30;;;;;;;27.29;47.32;101061.36;110548;1256;22204;-44
2023/06/30 08:25:21;;;;;;;4.30;3.90;;;;;;;27.30;47.18;101059.89;110630;1263;22497;-48
2023/06/30 08:27:48;;;;;;;;;;;;;;;27.31;47.67;101056.42;110627;1263;22513;-44
2023/06/30 08:30:15;;;;;;;5.00;4.40;;;;;;;27.34;47.58;101053.75;110586;1263;22295;-45
2023/06/30 08:32:42;;;;;;;4.80;4.40;;;;;;;27.39;47.67;101055.02;110559;1259;22408;-47
2023/06/30 08:35:09;;;;;;;5.00;4.50;;;;;;;27.46;47.80;101055.16;110574;1263;22429;-45
2023/06/30 08:37:37;;;;;;;4.30;4.00;;;;;;;27.51;47.70;101053.64;110189;1257;22510;-47
2023/06/30 08:40:05;;;;;;;4.00;3.70;;;;;;;27.56;47.09;101053.02;110559;1263;22393;-49
2023/06/30 08:42:35;;;;;;;4.60;4.20;;;;;;;27.60;47.18;101059.25;110573;1263;22206;-49
2023/06/30 08:45:03;;;;;;;4.10;3.70;;;;;;;27.64;47.14;101057.38;110458;1260;22111;-46
2023/06/30 08:47:31;;;;;;;4.50;4.00;;;;;;;27.69;46.81;101058.91;110375;1269;22313;-45
2023/06/30 08:49:58;;;;;;;4.50;4.20;;;;;;;27.71;46.61;101057.72;110630;1259;22334;-45
2023/06/30 08:52:25;;;;;;;4.80;4.20;;;;;;;27.70;46.09;101058.98;110599;1260;22124;-50
2023/06/30 08:54:52;;;;;;;4.30;4.00;;;;;;;27.69;46.03;101058.97;110553;1259;23002;-45
2023/06/30 08:57:21;;;;;;;4.50;3.70;;;;;;;27.69;46.20;101053.40;110204;1268;22131;-45
2023/06/30 08:59:48;;;;;;;5.10;4.20;;;;;;;27.70;46.29;101050.84;110564;1267;22329;-45
2023/06/30 09:02:14;;;;;;;4.40;4.00;;;;;;;27.71;46.53;101050.77;110554;1264;22892;-45
2023/06/30 09:04:44;;;;;;;4.30;3.70;;;;;;;27.73;46.23;101053.02;110094;1274;22457;-50
2023/06/30 09:07:23;;;;;;;4.50;3.60;;;;;;;27.75;46.05;101051.23;110649;1263;22410;-46
2023/06/30 09:09:53;;;;;;;3.90;3.50;;;;;;;27.82;45.78;101045.11;110590;1259;22395;-45
2023/06/30 09:12:20;;;;;;;6.70;3.30;;;;;;;27.87;45.40;101045.58;110583;1263;22139;-45
2023/06/30 09:14:47;;;;;;;3.80;3.40;;;;;;;27.90;44.74;101049.92;110629;1252;23104;-47
2023/06/30 09:17:17;;;;;;;3.70;3.40;;;;;;;27.90;44.57;101051.13;110474;1263;22130;-45
2023/06/30 09:19:44;;;;;;;5.40;3.40;;;;;;;27.89;44.37;101044.63;110645;1262;22344;-45
2023/06/30 09:22:11;;;;;;;4.50;3.50;;;;;;;27.89;44.59;101045.55;110496;1254;22525;-46
2023/06/30 09:24:59;;;;;;;3.50;3.20;;;;;;;27.88;44.54;101046.73;110542;1260;22362;-46
2023/06/30 09:27:27;;;;;;;4.10;3.00;;;;;;;27.87;44.42;101039.15;110619;1252;22467;-45
2023/06/30 09:29:54;;;;;;;3.30;3.10;;;;;;;27.88;44.62;101041.39;110581;1261;22426;-46
2023/06/30 09:32:29;;;;;;;4.90;4.50;;;;;;;27.88;44.45;101038.45;110608;1264;22357;-47
2023/06/30 09:34:55;;;;;;;5.50;4.00;;;;;;;27.89;44.26;101034.80;110252;1265;22138;-48
2023/06/30 09:37:22;;;;;;;5.30;4.80;;;;;;;27.91;44.64;101035.54;110583;1256;22941;-48
2023/06/30 09:39:50;;;;;;;3.90;3.60;;;;;;;27.96;43.62;101038.36;110579;1259;22578;-45
2023/06/30 09:42:18;;;;;;;4.00;3.10;;;;;;;28.00;43.73;101036.52;110553;1259;22335;-47
2023/06/30 09:44:45;;;;;;;2.90;2.70;;;;;;;28.07;44.02;101033.38;110555;1264;23162;-46
2023/06/30 09:47:12;;;;;;;3.20;2.90;;;;;;;28.15;43.56;101026.83;110576;1260;23006;-47
2023/06/30 09:49:40;;;;;;;4.10;3.40;;;;;;;28.23;43.52;101028.39;110510;1255;22350;-45
2023/06/30 09:52:06;;;;;;;3.40;3.10;;;;;;;28.30;43.42;101030.36;110537;1262;22979;-46
2023/06/30 09:54:35;;;;;;;3.80;3.30;;;;;;;28.37;43.84;101024.05;110458;1262;22386;-45
2023/06/30 09:57:11;;;;;;;3.00;2.80;;;;;;;28.40;42.89;101026.43;110580;1264;22942;-46
2023/06/30 09:59:39;;;;;;;3.00;2.80;;;;;;;28.42;42.78;101023.98;110565;1256;23280;-45
2023/06/30 10:02:05;;;;;;;3.60;3.30;;;;;;;28.41;42.72;101020.64;110144;1266;22950;-45
2023/06/30 10:04:33;;;;;;;3.10;2.90;;;;;;;28.39;42.67;101014.54;110581;1255;22321;-48
2023/06/30 10:07:03;;;;;;;3.30;3.00;;;;;;;28.39;42.25;101009.02;110598;1259;22436;-45
2023/06/30 10:09:30;;;;;;;3.00;2.80;;;;;;;28.43;42.09;101007.23;110477;1260;22302;-46
2023/06/30 10:11:57;;;;;;;3.60;3.00;;;;;;;28.48;42.37;101010.52;110537;1261;23074;-49
2023/06/30 10:14:28;;;;;;;3.50;2.70;;;;;;;28.52;42.37;101007.26;110607;1261;22800;-52
2023/06/30 10:16:56;;;;;;;4.00;3.20;;;;;;;28.56;42.38;101010.30;110575;1259;22456;-51
2023/06/30 10:19:23;;;;;;;3.30;2.60;;;;;;;28.59;41.98;101004.86;110645;1252;22340;-47
2023/06/30 10:21:50;;;;;;;3.00;2.80;;;;;;;28.61;42.18;101006.44;109429;1274;1002268;-46
2023/06/30 10:24:17;;;;;;;3.20;2.90;;;;;;;28.64;42.75;101006.92;110619;1267;22410;-47
2023/06/30 10:26:46;;;;;;;4.10;3.40;;;;;;;28.66;42.42;101008.15;110393;1267;23118;-50
2023/06/30 10:29:13;;;;;;;2.80;2.60;;;;;;;28.66;42.05;101009.40;110585;1263;22158;-47
2023/06/30 10:31:41;;;;;;;3.50;3.30;;;;;;;28.65;42.04;101007.87;110228;1267;22169;-45
2023/06/30 10:34:09;;;;;;;3.30;3.00;;;;;;;28.66;42.66;101003.85;110474;1255;22305;-48
2023/06/30 10:36:36;;;;;;;3.80;3.20;;;;;;;28.69;42.90;101004.96;110470;1265;22288;-46
2023/06/30 10:39:03;;;;;;;4.30;3.50;;;;;;;28.74;42.62;101005.55;109846;1259;1002409;-50
2023/06/30 10:41:30;;;;;;;3.50;3.20;;;;;;;28.80;43.30;101004.33;110476;1262;22372;-45
2023/06/30 10:44:03;;;;;;;3.30;2.80;;;;;;;28.86;43.33;101006.34;110363;1259;22391;-46
2023/06/30 10:46:49;;;;;;;3.50;3.20;;;;;;;28.95;42.65;101001.95;110581;1253;22414;-44
2023/06/30 10:49:20;;;;;;;3.40;3.20;;;;;;;29.05;41.75;100996.94;110575;1263;22993;-46
2023/06/30 10:51:50;;;;;;;6.10;4.20;;;;;;;29.13;41.15;100998.08;110622;1252;22346;-48
2023/06/30 10:54:21;;;;;;;5.30;3.90;;;;;;;29.20;41.04;100996.75;110621;1259;22357;-45
2023/06/30 10:56:49;;;;;;;11.30;7.50;;;;;;;29.29;40.97;100997.86;110602;1264;23183;-45
2023/06/30 10:59:25;;;;;;;6.90;5.60;;;;;;;29.36;40.85;100996.79;110643;1256;22957;-45
2023/06/30 11:02:23;;;;;;;4.20;3.80;;;;;;;29.45;40.71;100997.58;110599;1260;22394;-51
2023/06/30 11:04:52;;;;;;;6.30;5.30;;;;;;;29.51;40.06;100994.39;110302;1265;22396;-45
2023/06/30 11:07:23;;;;;;;4.50;4.10;;;;;;;29.56;40.27;100989.47;110587;1253;22092;-51
2023/06/30 11:09:50;;;;;;;5.60;5.00;;;;;;;29.61;40.42;100986.98;110600;1259;22895;-45
2023/06/30 11:12:24;;;;;;;4.50;4.10;;;;;;;29.63;40.70;100984.80;110614;1264;22253;-48
2023/06/30 11:14:56;;;;;;;8.50;5.20;;;;;;;29.63;40.65;100981.47;110531;1260;22416;-46
2023/06/30 11:17:24;;;;;;;6.90;4.80;;;;;;;29.62;41.15;100980.14;110607;1251;23340;-46
2023/06/30 11:20:12;;;;;;;6.00;4.20;;;;;;;29.62;41.13;100984.19;110573;1261;22354;-45